createdAt,value
2018-06-25T00:00:33.593Z,1008.1
2018-06-25T00:01:14.118Z,1008.11
2018-06-25T00:01:54.632Z,1008.11
2018-06-25T00:02:35.176Z,1008.1
2018-06-25T00:03:15.644Z,1008.1
2018-06-25T00:03:56.116Z,1008.09
2018-06-25T00:04:36.649Z,1008.08
2018-06-25T00:05:17.189Z,1008.11
2018-06-25T00:05:57.695Z,1008.06
2018-06-25T00:06:38.234Z,1008.11
2018-06-25T00:07:18.763Z,1008.11
2018-06-25T00:07:59.295Z,1008.11
2018-06-25T00:08:39.825Z,1008.14
2018-06-25T00:09:20.342Z,1008.12
2018-06-25T00:10:00.876Z,1008.13
2018-06-25T00:10:41.399Z,1008.08
2018-06-25T00:11:21.963Z,1008.12
2018-06-25T00:12:02.489Z,1008.05
2018-06-25T00:12:43.049Z,1008.13
2018-06-25T00:13:23.556Z,1008.1
2018-06-25T00:14:04.063Z,1008.13
2018-06-25T00:14:44.588Z,1008.1
2018-06-25T00:15:25.099Z,1008.11
2018-06-25T00:16:05.611Z,1008.07
2018-06-25T00:16:46.125Z,1008.15
2018-06-25T00:17:26.622Z,1008.14
2018-06-25T00:18:07.195Z,1008.15
2018-06-25T00:18:47.638Z,1008.15
2018-06-25T00:19:28.156Z,1008.14
2018-06-25T00:20:08.663Z,1008.15
2018-06-25T00:20:49.185Z,1008.16
2018-06-25T00:21:29.724Z,1008.13
2018-06-25T00:22:10.211Z,1008.16
2018-06-25T00:22:50.733Z,1008.14
2018-06-25T00:23:31.197Z,1008.17
2018-06-25T00:24:11.689Z,1008.13
2018-06-25T00:24:52.213Z,1008.19
2018-06-25T00:25:32.670Z,1008.14
2018-06-25T00:26:13.150Z,1008.11
2018-06-25T00:26:53.669Z,1008.14
2018-06-25T00:27:34.183Z,1008.13
2018-06-25T00:28:14.710Z,1008.1
2018-06-25T00:28:55.203Z,1008.15
2018-06-25T00:29:35.690Z,1008.13
2018-06-25T00:30:16.212Z,1008.14
2018-06-25T00:30:56.732Z,1008.13
2018-06-25T00:31:37.237Z,1008.11
2018-06-25T00:32:17.765Z,1008.27
2018-06-25T00:32:58.288Z,1008.2
2018-06-25T00:33:38.826Z,1008.19
2018-06-25T00:34:19.348Z,1008.16
2018-06-25T00:34:59.875Z,1008.13
2018-06-25T00:35:40.389Z,1008.15
2018-06-25T00:36:20.916Z,1008.16
2018-06-25T00:37:01.442Z,1008.16
2018-06-25T00:37:41.971Z,1008.15
2018-06-25T00:38:22.513Z,1008.15
2018-06-25T00:39:03.047Z,1008.11
2018-06-25T00:39:43.577Z,1008.11
2018-06-25T00:40:24.072Z,1008.09
2018-06-25T00:41:04.588Z,1008.1
2018-06-25T00:41:45.121Z,1008.09
2018-06-25T00:42:25.650Z,1008.14
2018-06-25T00:43:06.187Z,1008.12
2018-06-25T00:43:46.744Z,1008.16
2018-06-25T00:44:27.299Z,1008.13
2018-06-25T00:45:07.825Z,1008.11
2018-06-25T00:45:48.330Z,1008.12
2018-06-25T00:46:28.873Z,1008.11
2018-06-25T00:47:09.383Z,1008.12
2018-06-25T00:47:49.904Z,1008.05
2018-06-25T00:48:30.422Z,1008.1
2018-06-25T00:49:10.957Z,1008.11
2018-06-25T00:49:51.485Z,1008.1
2018-06-25T00:50:32.009Z,1008.12
2018-06-25T00:51:12.538Z,1008.12
2018-06-25T00:51:53.048Z,1008.07
2018-06-25T00:52:33.595Z,1008.06
2018-06-25T00:53:14.115Z,1008.11
2018-06-25T00:53:54.648Z,1008.09
2018-06-25T00:54:35.184Z,1008.1
2018-06-25T00:55:15.693Z,1008.09
2018-06-25T00:55:56.215Z,1008.12
2018-06-25T00:56:36.735Z,1008.06
2018-06-25T00:57:17.255Z,1008.08
2018-06-25T00:57:57.768Z,1008.04
2018-06-25T00:58:38.272Z,1008.07
2018-06-25T00:59:18.897Z,1008.04
2018-06-25T00:59:59.410Z,1008.02
2018-06-25T01:00:39.935Z,1008.06
2018-06-25T01:01:20.470Z,1008.09
2018-06-25T01:02:01.085Z,1008.02
2018-06-25T01:02:41.474Z,1008.06
2018-06-25T01:03:21.992Z,1008.05
2018-06-25T01:04:02.489Z,1008.05
2018-06-25T01:04:43.023Z,1008.04
2018-06-25T01:05:23.531Z,1008.06
2018-06-25T01:06:04.146Z,1008.07
2018-06-25T01:06:44.594Z,1008.06
2018-06-25T01:07:25.123Z,1008.05
2018-06-25T01:08:05.635Z,1008.02
2018-06-25T01:08:46.179Z,1008.07
2018-06-25T01:09:26.704Z,1008.02
2018-06-25T01:10:07.149Z,1008
2018-06-25T01:10:47.674Z,1008.03
2018-06-25T01:11:28.192Z,1008.03
2018-06-25T01:12:08.691Z,1008.02
2018-06-25T01:12:49.159Z,1008.03
2018-06-25T01:13:29.707Z,1007.99
2018-06-25T01:14:10.199Z,1008.06
2018-06-25T01:14:50.713Z,1008.04
2018-06-25T01:15:31.190Z,1008.04
2018-06-25T01:16:11.716Z,1008.04
2018-06-25T01:16:52.238Z,1008.05
2018-06-25T01:17:32.700Z,1008.05
2018-06-25T01:18:13.247Z,1008.07
2018-06-25T01:18:53.730Z,1008.05
2018-06-25T01:19:34.242Z,1008.02
2018-06-25T01:20:14.768Z,1008.08
2018-06-25T01:20:55.279Z,1008.06
2018-06-25T01:21:35.807Z,1008.09
2018-06-25T01:22:16.351Z,1008.15
2018-06-25T01:22:56.859Z,1008.12
2018-06-25T01:23:37.392Z,1008.1
2018-06-25T01:24:17.906Z,1008.17
2018-06-25T01:24:58.428Z,1008.11
2018-06-25T01:25:38.944Z,1008.1
2018-06-25T01:26:19.465Z,1008.15
2018-06-25T01:26:59.976Z,1008.15
2018-06-25T01:27:40.504Z,1008.12
2018-06-25T01:28:21.025Z,1008.14
2018-06-25T01:29:01.564Z,1008.18
2018-06-25T01:29:42.097Z,1008.14
2018-06-25T01:30:22.631Z,1008.14
2018-06-25T01:31:03.133Z,1008.15
2018-06-25T01:31:43.658Z,1008.15
2018-06-25T01:32:24.187Z,1008.12
2018-06-25T01:33:04.648Z,1008.15
2018-06-25T01:33:45.192Z,1008.1
2018-06-25T01:34:25.721Z,1008.13
2018-06-25T01:35:06.240Z,1008.09
2018-06-25T01:35:46.775Z,1008.12
2018-06-25T01:36:27.287Z,1008.11
2018-06-25T01:37:07.822Z,1008.15
2018-06-25T01:37:48.335Z,1008.08
2018-06-25T01:38:28.872Z,1008.11
2018-06-25T01:39:09.397Z,1008.11
2018-06-25T01:39:49.922Z,1008.08
2018-06-25T01:40:30.436Z,1008.12
2018-06-25T01:41:10.977Z,1008.12
2018-06-25T01:41:51.486Z,1008.09
2018-06-25T01:42:32.040Z,1008.08
2018-06-25T01:43:12.543Z,1008.08
2018-06-25T01:43:53.087Z,1008.09
2018-06-25T01:44:33.628Z,1008.09
2018-06-25T01:45:14.154Z,1008.02
2018-06-25T01:45:54.674Z,1008.08
2018-06-25T01:46:35.201Z,1008.08
2018-06-25T01:47:15.737Z,1008.09
2018-06-25T01:47:56.250Z,1008.07
2018-06-25T01:48:36.778Z,1008.11
2018-06-25T01:49:17.283Z,1008.07
2018-06-25T01:49:57.824Z,1008.12
2018-06-25T01:50:38.358Z,1008.09
2018-06-25T01:51:18.889Z,1008.13
2018-06-25T01:51:59.386Z,1008.08
2018-06-25T01:52:39.936Z,1008.12
2018-06-25T01:53:20.469Z,1008.09
2018-06-25T01:54:01.000Z,1008.08
2018-06-25T01:54:41.524Z,1008.13
2018-06-25T01:55:22.051Z,1008.12
2018-06-25T01:56:02.582Z,1008.07
2018-06-25T01:56:43.107Z,1008.05
2018-06-25T01:57:23.655Z,1008.09
2018-06-25T01:58:04.176Z,1008.12
2018-06-25T01:58:44.694Z,1008.09
2018-06-25T01:59:25.210Z,1008.09
2018-06-25T02:00:05.740Z,1008.05
2018-06-25T02:00:46.260Z,1008.06
2018-06-25T02:01:26.788Z,1008.06
2018-06-25T02:02:07.297Z,1008.07
2018-06-25T02:02:47.805Z,1008.08
2018-06-25T02:03:28.340Z,1008.09
2018-06-25T02:04:08.863Z,1008.11
2018-06-25T02:04:49.385Z,1008.06
2018-06-25T02:05:29.918Z,1008.03
2018-06-25T02:06:10.437Z,1008.01
2018-06-25T02:06:50.955Z,1008.04
2018-06-25T02:07:31.490Z,1008
2018-06-25T02:08:12.031Z,1008.09
2018-06-25T02:08:52.548Z,1008.04
2018-06-25T02:09:33.066Z,1008.09
2018-06-25T02:10:13.576Z,1008.05
2018-06-25T02:10:54.083Z,1008.08
2018-06-25T02:11:34.604Z,1008.05
2018-06-25T02:12:15.122Z,1008.06
2018-06-25T02:12:55.644Z,1008.04
2018-06-25T02:13:36.173Z,1008.01
2018-06-25T02:14:16.707Z,1008.01
2018-06-25T02:14:57.222Z,1008.04
2018-06-25T02:15:37.747Z,1008.03
2018-06-25T02:16:18.264Z,1008
2018-06-25T02:16:58.802Z,1008
2018-06-25T02:17:39.327Z,1008.01
2018-06-25T02:18:19.852Z,1008.02
2018-06-25T02:19:00.392Z,1008.04
2018-06-25T02:19:40.903Z,1008.03
2018-06-25T02:20:21.409Z,1008.02
2018-06-25T02:21:01.941Z,1008.06
2018-06-25T02:21:42.459Z,1008.03
2018-06-25T02:22:22.992Z,1008.05
2018-06-25T02:23:03.503Z,1008.03
2018-06-25T02:23:44.021Z,1008.06
2018-06-25T02:24:24.557Z,1008.06
2018-06-25T02:25:05.079Z,1008.08
2018-06-25T02:25:45.594Z,1008.04
2018-06-25T02:26:26.122Z,1008.09
2018-06-25T02:27:06.640Z,1008.08
2018-06-25T02:27:47.163Z,1008.08
2018-06-25T02:28:27.682Z,1008.05
2018-06-25T02:29:08.224Z,1008.04
2018-06-25T02:29:48.756Z,1008.04
2018-06-25T02:30:29.255Z,1008.03
2018-06-25T02:31:09.775Z,1008.06
2018-06-25T02:31:50.291Z,1008.04
2018-06-25T02:32:30.794Z,1008.02
2018-06-25T02:33:11.326Z,1008.05
2018-06-25T02:33:51.845Z,1008.03
2018-06-25T02:34:32.344Z,1008
2018-06-25T02:35:12.839Z,1008.06
2018-06-25T02:35:53.339Z,1008.05
2018-06-25T02:36:33.847Z,1008.04
2018-06-25T02:37:14.371Z,1008.05
2018-06-25T02:37:54.875Z,1007.98
2018-06-25T02:38:35.444Z,1007.99
2018-06-25T02:39:15.923Z,1007.97
2018-06-25T02:39:56.406Z,1007.98
2018-06-25T02:40:36.885Z,1007.98
2018-06-25T02:41:17.392Z,1007.99
2018-06-25T02:41:57.876Z,1008
2018-06-25T02:42:38.336Z,1007.99
2018-06-25T02:43:18.838Z,1008
2018-06-25T02:43:59.315Z,1008.03
2018-06-25T02:44:39.804Z,1008.04
2018-06-25T02:45:20.296Z,1008
2018-06-25T02:46:00.791Z,1008.02
2018-06-25T02:46:41.293Z,1008.03
2018-06-25T02:47:21.813Z,1008.01
2018-06-25T02:48:02.336Z,1007.99
2018-06-25T02:48:42.862Z,1008.03
2018-06-25T02:49:23.377Z,1007.99
2018-06-25T02:50:03.906Z,1007.98
2018-06-25T02:50:44.413Z,1008.01
2018-06-25T02:51:24.921Z,1008.03
2018-06-25T02:52:05.449Z,1008.05
2018-06-25T02:52:45.905Z,1008.03
2018-06-25T02:53:26.425Z,1008.04
2018-06-25T02:54:06.951Z,1008.02
2018-06-25T02:54:47.466Z,1007.98
2018-06-25T02:55:28.020Z,1008.02
2018-06-25T02:56:08.485Z,1008.04
2018-06-25T02:56:48.968Z,1007.97
2018-06-25T02:57:29.490Z,1007.97
2018-06-25T02:58:10.038Z,1008.02
2018-06-25T02:58:50.569Z,1007.99
2018-06-25T02:59:31.082Z,1007.99
2018-06-25T03:00:11.638Z,1007.99
2018-06-25T03:00:52.157Z,1007.98
2018-06-25T03:01:32.709Z,1008.01
2018-06-25T03:02:13.259Z,1008
2018-06-25T03:02:53.787Z,1008.03
2018-06-25T03:03:34.374Z,1007.98
2018-06-25T03:04:14.876Z,1008
2018-06-25T03:04:55.402Z,1008.01
2018-06-25T03:05:35.929Z,1008.03
2018-06-25T03:06:16.447Z,1008.03
2018-06-25T03:06:56.961Z,1008.04
2018-06-25T03:07:37.497Z,1008.09
2018-06-25T03:08:18.014Z,1008.02
2018-06-25T03:08:58.538Z,1008.08
2018-06-25T03:09:39.038Z,1008.02
2018-06-25T03:10:19.564Z,1008.05
2018-06-25T03:11:00.085Z,1008.02
2018-06-25T03:11:40.631Z,1008.06
2018-06-25T03:12:21.175Z,1008.1
2018-06-25T03:13:01.689Z,1008.06
2018-06-25T03:13:42.209Z,1008.08
2018-06-25T03:14:22.729Z,1008.07
2018-06-25T03:15:03.250Z,1008.07
2018-06-25T03:15:43.770Z,1008.1
2018-06-25T03:16:24.308Z,1008.09
2018-06-25T03:17:04.822Z,1008.09
2018-06-25T03:17:45.341Z,1008.09
2018-06-25T03:18:25.897Z,1008.11
2018-06-25T03:19:06.409Z,1008.08
2018-06-25T03:19:46.917Z,1008.1
2018-06-25T03:20:27.431Z,1008.08
2018-06-25T03:21:07.963Z,1008.09
2018-06-25T03:21:48.501Z,1008.1
2018-06-25T03:22:29.031Z,1008.08
2018-06-25T03:23:09.527Z,1008.08
2018-06-25T03:23:50.068Z,1008.13
2018-06-25T03:24:30.578Z,1008.12
2018-06-25T03:25:11.102Z,1008.09
2018-06-25T03:25:51.614Z,1008.09
2018-06-25T03:26:32.171Z,1008.11
2018-06-25T03:27:12.700Z,1008.11
2018-06-25T03:27:53.235Z,1008.09
2018-06-25T03:28:33.743Z,1008.12
2018-06-25T03:29:14.253Z,1008.15
2018-06-25T03:29:54.797Z,1008.1
2018-06-25T03:30:35.298Z,1008.17
2018-06-25T03:31:15.784Z,1008.13
2018-06-25T03:31:56.261Z,1008.14
2018-06-25T03:32:36.725Z,1008.16
2018-06-25T03:33:17.204Z,1008.14
2018-06-25T03:33:57.709Z,1008.11
2018-06-25T03:34:38.228Z,1008.14
2018-06-25T03:35:18.695Z,1008.17
2018-06-25T03:35:59.176Z,1008.13
2018-06-25T03:36:39.679Z,1008.18
2018-06-25T03:37:20.139Z,1008.21
2018-06-25T03:38:00.683Z,1008.19
2018-06-25T03:38:41.154Z,1008.22
2018-06-25T03:39:21.650Z,1008.21
2018-06-25T03:40:02.138Z,1008.2
2018-06-25T03:40:42.603Z,1008.22
2018-06-25T03:41:23.204Z,1008.19
2018-06-25T03:42:03.663Z,1008.25
2018-06-25T03:42:44.195Z,1008.19
2018-06-25T03:43:24.752Z,1008.17
2018-06-25T03:44:05.222Z,1008.27
2018-06-25T03:44:45.730Z,1008.23
2018-06-25T03:45:26.270Z,1008.26
2018-06-25T03:46:06.764Z,1008.21
2018-06-25T03:46:47.279Z,1008.29
2018-06-25T03:47:27.804Z,1008.27
2018-06-25T03:48:08.337Z,1008.27
2018-06-25T03:48:48.892Z,1008.28
2018-06-25T03:49:29.349Z,1008.25
2018-06-25T03:50:09.882Z,1008.31
2018-06-25T03:50:50.400Z,1008.25
2018-06-25T03:51:30.925Z,1008.26
2018-06-25T03:52:11.446Z,1008.31
2018-06-25T03:52:51.967Z,1008.29
2018-06-25T03:53:32.457Z,1008.28
2018-06-25T03:54:13.006Z,1008.27
2018-06-25T03:54:53.535Z,1008.33
2018-06-25T03:55:34.050Z,1008.27
2018-06-25T03:56:14.557Z,1008.27
2018-06-25T03:56:55.171Z,1008.3
2018-06-25T03:57:35.616Z,1008.29
2018-06-25T03:58:16.144Z,1008.28
2018-06-25T03:58:56.590Z,1008.29
2018-06-25T03:59:37.075Z,1008.28
2018-06-25T04:00:17.578Z,1008.34
2018-06-25T04:00:58.122Z,1008.34
2018-06-25T04:01:38.688Z,1008.32
2018-06-25T04:02:19.186Z,1008.32
2018-06-25T04:02:59.709Z,1008.37
2018-06-25T04:03:40.158Z,1008.36
2018-06-25T04:04:20.634Z,1008.37
2018-06-25T04:05:01.197Z,1008.39
2018-06-25T04:05:41.685Z,1008.39
2018-06-25T04:06:22.127Z,1008.4
2018-06-25T04:07:02.628Z,1008.45
2018-06-25T04:07:43.163Z,1008.4
2018-06-25T04:08:23.655Z,1008.39
2018-06-25T04:09:04.154Z,1008.43
2018-06-25T04:09:44.626Z,1008.47
2018-06-25T04:10:25.125Z,1008.48
2018-06-25T04:11:05.632Z,1008.45
2018-06-25T04:11:46.149Z,1008.47
2018-06-25T04:12:26.654Z,1008.43
2018-06-25T04:13:07.184Z,1008.46
2018-06-25T04:13:47.715Z,1008.45
2018-06-25T04:14:28.238Z,1008.48
2018-06-25T04:15:08.777Z,1008.47
2018-06-25T04:15:49.303Z,1008.45
2018-06-25T04:16:29.832Z,1008.5
2018-06-25T04:17:10.362Z,1008.5
2018-06-25T04:17:50.966Z,1008.5
2018-06-25T04:18:31.482Z,1008.49
2018-06-25T04:19:11.985Z,1008.55
2018-06-25T04:19:52.514Z,1008.57
2018-06-25T04:20:33.033Z,1008.58
2018-06-25T04:21:13.561Z,1008.61
2018-06-25T04:21:54.080Z,1008.58
2018-06-25T04:22:34.632Z,1008.63
2018-06-25T04:23:15.152Z,1008.63
2018-06-25T04:23:55.680Z,1008.58
2018-06-25T04:24:36.184Z,1008.63
2018-06-25T04:25:16.714Z,1008.61
2018-06-25T04:25:57.251Z,1008.6
2018-06-25T04:26:37.784Z,1008.63
2018-06-25T04:27:18.295Z,1008.61
2018-06-25T04:27:58.915Z,1008.66
2018-06-25T04:28:39.438Z,1008.67
2018-06-25T04:29:19.972Z,1008.61
2018-06-25T04:30:00.482Z,1008.62
2018-06-25T04:30:41.037Z,1008.64
2018-06-25T04:31:21.541Z,1008.61
2018-06-25T04:32:02.068Z,1008.65
2018-06-25T04:32:42.594Z,1008.64
2018-06-25T04:33:23.116Z,1008.71
2018-06-25T04:34:03.629Z,1008.71
2018-06-25T04:34:44.164Z,1008.76
2018-06-25T04:35:24.697Z,1008.72
2018-06-25T04:36:05.221Z,1008.7
2018-06-25T04:36:45.799Z,1008.72
2018-06-25T04:37:26.316Z,1008.76
2018-06-25T04:38:06.836Z,1008.69
2018-06-25T04:38:47.365Z,1008.71
2018-06-25T04:39:27.888Z,1008.69
2018-06-25T04:40:08.441Z,1008.75
2018-06-25T04:40:48.934Z,1008.71
2018-06-25T04:41:29.460Z,1008.73
2018-06-25T04:42:09.976Z,1008.75
2018-06-25T04:42:50.499Z,1008.76
2018-06-25T04:43:31.124Z,1008.72
2018-06-25T04:44:11.639Z,1008.79
2018-06-25T04:44:52.154Z,1008.81
2018-06-25T04:45:32.674Z,1008.79
2018-06-25T04:46:13.184Z,1008.75
2018-06-25T04:46:53.716Z,1008.75
2018-06-25T04:47:34.232Z,1008.82
2018-06-25T04:48:14.751Z,1008.85
2018-06-25T04:48:55.295Z,1008.75
2018-06-25T04:49:35.811Z,1008.82
2018-06-25T04:50:16.328Z,1008.82
2018-06-25T04:50:56.854Z,1008.81
2018-06-25T04:51:37.380Z,1008.87
2018-06-25T04:52:17.906Z,1008.86
2018-06-25T04:52:58.425Z,1008.82
2018-06-25T04:53:38.986Z,1008.83
2018-06-25T04:54:19.479Z,1008.83
2018-06-25T04:55:00.024Z,1008.81
2018-06-25T04:55:40.537Z,1008.84
2018-06-25T04:56:21.055Z,1008.85
2018-06-25T04:57:01.578Z,1008.82
2018-06-25T04:57:42.090Z,1008.87
2018-06-25T04:58:22.598Z,1008.81
2018-06-25T04:59:03.111Z,1008.8
2018-06-25T04:59:43.597Z,1008.82
2018-06-25T05:00:24.112Z,1008.82
2018-06-25T05:01:04.646Z,1008.81
2018-06-25T05:01:45.167Z,1008.81
2018-06-25T05:02:25.650Z,1008.83
2018-06-25T05:03:06.155Z,1008.84
2018-06-25T05:03:46.683Z,1008.85
2018-06-25T05:04:27.210Z,1008.83
2018-06-25T05:05:07.744Z,1008.8
2018-06-25T05:05:48.258Z,1008.86
2018-06-25T05:06:28.787Z,1008.82
2018-06-25T05:07:09.305Z,1008.92
2018-06-25T05:07:49.845Z,1008.82
2018-06-25T05:08:30.331Z,1008.83
2018-06-25T05:09:10.863Z,1008.88
2018-06-25T05:09:51.388Z,1008.87
2018-06-25T05:10:31.943Z,1008.91
2018-06-25T05:11:12.410Z,1008.88
2018-06-25T05:11:52.908Z,1008.91
2018-06-25T05:12:33.452Z,1008.88
2018-06-25T05:13:13.929Z,1008.91
2018-06-25T05:13:54.447Z,1008.87
2018-06-25T05:14:34.981Z,1008.88
2018-06-25T05:15:15.494Z,1008.88
2018-06-25T05:15:56.011Z,1008.91
2018-06-25T05:16:36.537Z,1008.91
2018-06-25T05:17:17.081Z,1008.94
2018-06-25T05:17:57.612Z,1008.92
2018-06-25T05:18:38.156Z,1008.93
2018-06-25T05:19:18.700Z,1008.93
2018-06-25T05:19:59.247Z,1008.92
2018-06-25T05:20:39.762Z,1008.9
2018-06-25T05:21:20.297Z,1008.96
2018-06-25T05:22:00.814Z,1008.94
2018-06-25T05:22:41.337Z,1008.94
2018-06-25T05:23:21.863Z,1008.98
2018-06-25T05:24:02.382Z,1008.95
2018-06-25T05:24:42.920Z,1008.96
2018-06-25T05:25:23.455Z,1008.97
2018-06-25T05:26:03.953Z,1008.96
2018-06-25T05:26:44.433Z,1008.99
2018-06-25T05:27:24.929Z,1008.98
2018-06-25T05:28:05.460Z,1009.02
2018-06-25T05:28:45.970Z,1009.01
2018-06-25T05:29:26.508Z,1009.06
2018-06-25T05:30:07.022Z,1009.01
2018-06-25T05:30:47.549Z,1009.06
2018-06-25T05:31:28.107Z,1009.07
2018-06-25T05:32:08.601Z,1009.07
2018-06-25T05:32:49.117Z,1009.1
2018-06-25T05:33:29.639Z,1009.08
2018-06-25T05:34:10.151Z,1009.12
2018-06-25T05:34:50.655Z,1009.06
2018-06-25T05:35:31.188Z,1009.09
2018-06-25T05:36:11.711Z,1009.08
2018-06-25T05:36:52.239Z,1009.09
2018-06-25T05:37:32.792Z,1009.11
2018-06-25T05:38:13.308Z,1009.11
2018-06-25T05:38:53.830Z,1009.08
2018-06-25T05:39:34.356Z,1009.11
2018-06-25T05:40:14.871Z,1009.08
2018-06-25T05:40:55.390Z,1009.1
2018-06-25T05:41:35.923Z,1009.05
2018-06-25T05:42:16.435Z,1009.08
2018-06-25T05:42:56.943Z,1009.1
2018-06-25T05:43:37.476Z,1009.15
2018-06-25T05:44:17.996Z,1009.13
2018-06-25T05:44:58.518Z,1009.15
2018-06-25T05:45:39.063Z,1009.17
2018-06-25T05:46:19.602Z,1009.14
2018-06-25T05:47:00.124Z,1009.14
2018-06-25T05:47:40.646Z,1009.18
2018-06-25T05:48:21.190Z,1009.17
2018-06-25T05:49:01.740Z,1009.25
2018-06-25T05:49:42.305Z,1009.2
2018-06-25T05:50:22.827Z,1009.22
2018-06-25T05:51:03.344Z,1009.19
2018-06-25T05:51:43.878Z,1009.24
2018-06-25T05:52:24.401Z,1009.19
2018-06-25T05:53:04.914Z,1009.23
2018-06-25T05:53:45.449Z,1009.22
2018-06-25T05:54:25.942Z,1009.31
2018-06-25T05:55:06.459Z,1009.25
2018-06-25T05:55:46.989Z,1009.27
2018-06-25T05:56:27.508Z,1009.29
2018-06-25T05:57:08.045Z,1009.28
2018-06-25T05:57:48.542Z,1009.29
2018-06-25T05:58:29.085Z,1009.29
2018-06-25T05:59:09.591Z,1009.25
2018-06-25T05:59:50.122Z,1009.26
2018-06-25T06:00:30.655Z,1009.35
2018-06-25T06:01:11.183Z,1009.39
2018-06-25T06:01:51.721Z,1009.32
2018-06-25T06:02:32.231Z,1009.32
2018-06-25T06:03:12.774Z,1009.32
2018-06-25T06:03:53.304Z,1009.38
2018-06-25T06:04:33.824Z,1009.4
2018-06-25T06:05:14.404Z,1009.42
2018-06-25T06:05:54.915Z,1009.37
2018-06-25T06:06:35.448Z,1009.39
2018-06-25T06:07:15.988Z,1009.39
2018-06-25T06:07:56.536Z,1009.4
2018-06-25T06:08:37.055Z,1009.44
2018-06-25T06:09:17.595Z,1009.39
2018-06-25T06:09:58.136Z,1009.37
2018-06-25T06:10:38.648Z,1009.4
2018-06-25T06:11:19.173Z,1009.41
2018-06-25T06:11:59.695Z,1009.47
2018-06-25T06:12:40.238Z,1009.48
2018-06-25T06:13:20.760Z,1009.44
2018-06-25T06:14:01.367Z,1009.49
2018-06-25T06:14:41.827Z,1009.51
2018-06-25T06:15:22.363Z,1009.45
2018-06-25T06:16:02.892Z,1009.53
2018-06-25T06:16:43.428Z,1009.5
2018-06-25T06:17:23.978Z,1009.5
2018-06-25T06:18:04.474Z,1009.49
2018-06-25T06:18:44.989Z,1009.49
2018-06-25T06:19:25.546Z,1009.5
2018-06-25T06:20:06.055Z,1009.54
2018-06-25T06:20:46.570Z,1009.48
2018-06-25T06:21:27.092Z,1009.49
2018-06-25T06:22:07.618Z,1009.52
2018-06-25T06:22:48.140Z,1009.52
2018-06-25T06:23:28.641Z,1009.5
2018-06-25T06:24:09.182Z,1009.55
2018-06-25T06:24:49.695Z,1009.54
2018-06-25T06:25:30.218Z,1009.5
2018-06-25T06:26:10.762Z,1009.49
2018-06-25T06:26:51.279Z,1009.6
2018-06-25T06:27:31.818Z,1009.56
2018-06-25T06:28:12.342Z,1009.55
2018-06-25T06:28:52.885Z,1009.59
2018-06-25T06:29:33.400Z,1009.54
2018-06-25T06:30:13.913Z,1009.52
2018-06-25T06:30:54.418Z,1009.49
2018-06-25T06:31:34.953Z,1009.48
2018-06-25T06:32:15.564Z,1009.47
2018-06-25T06:32:56.010Z,1009.48
2018-06-25T06:33:36.558Z,1009.49
2018-06-25T06:34:17.030Z,1009.58
2018-06-25T06:34:57.526Z,1009.55
2018-06-25T06:35:38.038Z,1009.57
2018-06-25T06:36:18.551Z,1009.58
2018-06-25T06:36:59.134Z,1009.58
2018-06-25T06:37:39.638Z,1009.54
2018-06-25T06:38:20.121Z,1009.57
2018-06-25T06:39:00.666Z,1009.58
2018-06-25T06:39:41.151Z,1009.64
2018-06-25T06:40:21.659Z,1009.6
2018-06-25T06:41:02.204Z,1009.6
2018-06-25T06:41:42.665Z,1009.64
2018-06-25T06:42:23.142Z,1009.69
2018-06-25T06:43:03.644Z,1009.68
2018-06-25T06:43:44.172Z,1009.62
2018-06-25T06:44:24.696Z,1009.65
2018-06-25T06:45:05.222Z,1009.67
2018-06-25T06:45:45.754Z,1009.63
2018-06-25T06:46:26.274Z,1009.68
2018-06-25T06:47:06.802Z,1009.72
2018-06-25T06:47:47.390Z,1009.7
2018-06-25T06:48:27.838Z,1009.7
2018-06-25T06:49:08.358Z,1009.68
2018-06-25T06:49:48.886Z,1009.72
2018-06-25T06:50:29.483Z,1009.65
2018-06-25T06:51:09.976Z,1009.75
2018-06-25T06:51:50.499Z,1009.77
2018-06-25T06:52:31.030Z,1009.72
2018-06-25T06:53:11.559Z,1009.75
2018-06-25T06:53:52.073Z,1009.77
2018-06-25T06:54:32.583Z,1009.79
2018-06-25T06:55:13.097Z,1009.75
2018-06-25T06:55:53.620Z,1009.76
2018-06-25T06:56:34.144Z,1009.76
2018-06-25T06:57:14.674Z,1009.77
2018-06-25T06:57:55.205Z,1009.77
2018-06-25T06:58:35.722Z,1009.79
2018-06-25T06:59:16.274Z,1009.81
2018-06-25T06:59:56.809Z,1009.8
2018-06-25T07:00:37.324Z,1009.76
2018-06-25T07:01:17.841Z,1009.8
2018-06-25T07:01:58.332Z,1009.76
2018-06-25T07:02:38.851Z,1009.79
2018-06-25T07:03:19.384Z,1009.77
2018-06-25T07:03:59.973Z,1009.82
2018-06-25T07:04:40.553Z,1009.8
2018-06-25T07:05:21.054Z,1009.78
2018-06-25T07:06:01.569Z,1009.8
2018-06-25T07:06:42.119Z,1009.84
2018-06-25T07:07:22.647Z,1009.8
2018-06-25T07:08:03.172Z,1009.77
2018-06-25T07:08:43.698Z,1009.75
2018-06-25T07:09:24.235Z,1009.81
2018-06-25T07:10:04.737Z,1009.85
2018-06-25T07:10:45.261Z,1009.83
2018-06-25T07:11:25.823Z,1009.85
2018-06-25T07:12:06.327Z,1009.83
2018-06-25T07:12:46.843Z,1009.82
2018-06-25T07:13:27.362Z,1009.81
2018-06-25T07:14:07.887Z,1009.8
2018-06-25T07:14:48.404Z,1009.79
2018-06-25T07:15:28.924Z,1009.79
2018-06-25T07:16:09.473Z,1009.74
2018-06-25T07:16:49.966Z,1009.8
2018-06-25T07:17:30.485Z,1009.78
2018-06-25T07:18:11.008Z,1009.78
2018-06-25T07:18:51.537Z,1009.8
2018-06-25T07:19:32.052Z,1009.76
2018-06-25T07:20:12.576Z,1009.78
2018-06-25T07:20:53.187Z,1009.79
2018-06-25T07:21:33.624Z,1009.77
2018-06-25T07:22:14.165Z,1009.76
2018-06-25T07:22:54.680Z,1009.79
2018-06-25T07:23:35.200Z,1009.75
2018-06-25T07:24:15.727Z,1009.82
2018-06-25T07:24:56.253Z,1009.8
2018-06-25T07:25:36.779Z,1009.81
2018-06-25T07:26:17.302Z,1009.83
2018-06-25T07:26:57.839Z,1009.82
2018-06-25T07:27:38.329Z,1009.8
2018-06-25T07:28:18.881Z,1009.79
2018-06-25T07:28:59.388Z,1009.75
2018-06-25T07:29:39.935Z,1009.74
2018-06-25T07:30:20.484Z,1009.77
2018-06-25T07:31:01.013Z,1009.77
2018-06-25T07:31:41.542Z,1009.77
2018-06-25T07:32:22.068Z,1009.78
2018-06-25T07:33:02.627Z,1009.78
2018-06-25T07:33:43.143Z,1009.83
2018-06-25T07:34:23.665Z,1009.77
2018-06-25T07:35:04.268Z,1009.77
2018-06-25T07:35:44.723Z,1009.78
2018-06-25T07:36:25.250Z,1009.77
2018-06-25T07:37:05.789Z,1009.77
2018-06-25T07:37:46.299Z,1009.74
2018-06-25T07:38:26.821Z,1009.74
2018-06-25T07:39:07.344Z,1009.78
2018-06-25T07:39:47.861Z,1009.75
2018-06-25T07:40:28.378Z,1009.75
2018-06-25T07:41:08.891Z,1009.73
2018-06-25T07:41:49.420Z,1009.77
2018-06-25T07:42:29.974Z,1009.72
2018-06-25T07:43:10.507Z,1009.67
2018-06-25T07:43:51.032Z,1009.71
2018-06-25T07:44:31.565Z,1009.68
2018-06-25T07:45:12.090Z,1009.69
2018-06-25T07:45:52.657Z,1009.7
2018-06-25T07:46:33.179Z,1009.62
2018-06-25T07:47:13.794Z,1009.66
2018-06-25T07:47:54.230Z,1009.65
2018-06-25T07:48:34.772Z,1009.7
2018-06-25T07:49:15.276Z,1009.72
2018-06-25T07:49:55.800Z,1009.68
2018-06-25T07:50:36.355Z,1009.71
2018-06-25T07:51:16.874Z,1009.7
2018-06-25T07:51:57.412Z,1009.7
2018-06-25T07:52:37.942Z,1009.7
2018-06-25T07:53:18.483Z,1009.72
2018-06-25T07:53:59.015Z,1009.7
2018-06-25T07:54:39.534Z,1009.74
2018-06-25T07:55:20.040Z,1009.73
2018-06-25T07:56:00.611Z,1009.71
2018-06-25T07:56:41.139Z,1009.72
2018-06-25T07:57:21.650Z,1009.7
2018-06-25T07:58:02.180Z,1009.74
2018-06-25T07:58:42.735Z,1009.75
2018-06-25T07:59:23.258Z,1009.74
2018-06-25T08:00:03.793Z,1009.75
2018-06-25T08:00:44.297Z,1009.75
2018-06-25T08:01:24.837Z,1009.81
2018-06-25T08:02:05.350Z,1009.77
2018-06-25T08:02:45.853Z,1009.78
2018-06-25T08:03:26.368Z,1009.74
2018-06-25T08:04:06.897Z,1009.79
2018-06-25T08:04:47.405Z,1009.78
2018-06-25T08:05:27.939Z,1009.8
2018-06-25T08:06:08.459Z,1009.8
2018-06-25T08:06:48.979Z,1009.79
2018-06-25T08:07:29.506Z,1009.79
2018-06-25T08:08:10.046Z,1009.81
2018-06-25T08:08:50.562Z,1009.79
2018-06-25T08:09:31.082Z,1009.82
2018-06-25T08:10:11.640Z,1009.81
2018-06-25T08:10:52.121Z,1009.76
2018-06-25T08:11:32.691Z,1009.79
2018-06-25T08:12:13.137Z,1009.85